Sunset Hills, Missouri
Current Conditions -  °F | °C
As of 9:53 AM on Monday 24 Nov 2014 (Local Time) from KCPS Reporting Station
Overcast Overcast  
Wind Chill: 31°   Ceiling: 3300
Heat Index: 40°   Visibility: 10mi
Dew Point: 28°   Wind: 17mph
Humidity: 63%   Direction: 270°W
Pressure: 29.66"   Gusts: 33mph
Location:  38.5348°N, 90.4131°W
Report Text: KCPS 241553Z 27015G29KT 10SM BKN033 OVC042 04/M02 A2966 RMK AO2 PK WND 27029/1519 SLP044 T00441022
Loading
Personal Weather Stations






























Interactive Weather Map New forecast layout! Learn more

10-Day Weather Forecast

Advertisements
Track Severe Weather on mobile